Time;durP1;ratioP1;P1;durP2;ratioP2;P2;SDS_P1;SDS_P2;PMS_P1;PMS_P2;Temp;Humidity;BMP_temperature;BMP_pressure;BME280_temperature;BME280_humidity;BME280_pressure;Samples;Min_cycle;Max_cycle;Signal;HPM_P1;HPM_P2
2024/01/29 17:53:07;;;;;;;11.65;6.10;;;19.90;48.40;;;;;;5138038;27;20872;-53
2024/01/29 17:55:33;;;;;;;9.30;5.53;;;20.20;48.30;;;;;;5128877;27;20080;-51
2024/01/29 17:57:59;;;;;;;10.70;5.78;;;20.20;48.10;;;;;;5111426;28;20011;-52
2024/01/29 18:00:27;;;;;;;13.57;6.28;;;20.30;48.10;;;;;;5129603;28;20030;-54
2024/01/29 18:02:52;;;;;;;12.70;6.38;;;20.30;48.20;;;;;;5128908;27;20019;-52
2024/01/29 18:05:20;;;;;;;14.70;6.35;;;20.30;47.90;;;;;;5096501;22;20112;-62
2024/01/29 18:07:46;;;;;;;15.77;6.90;;;20.20;48.10;;;;;;5024949;28;20068;-61
2024/01/29 18:10:12;;;;;;;11.43;6.35;;;20.20;47.80;;;;;;5025221;28;20054;-62
2024/01/29 18:12:38;;;;;;;12.52;6.45;;;20.20;48.00;;;;;;5037396;28;20132;-61
2024/01/29 18:15:05;;;;;;;12.55;6.68;;;20.20;48.10;;;;;;5024975;28;20034;-61
2024/01/29 18:17:31;;;;;;;11.95;6.75;;;20.20;48.10;;;;;;5025049;28;20029;-61
2024/01/29 18:19:57;;;;;;;13.98;6.25;;;20.20;48.10;;;;;;5025085;28;20518;-63
2024/01/29 18:22:23;;;;;;;13.32;6.13;;;20.20;48.30;;;;;;5024699;28;20022;-63
2024/01/29 18:24:51;;;;;;;16.50;6.88;;;20.20;48.40;;;;;;5026799;28;20532;-62
2024/01/29 18:27:16;;;;;;;13.75;7.07;;;20.10;48.60;;;;;;5027743;28;20074;-63
2024/01/29 18:29:42;;;;;;;20.27;7.13;;;20.20;48.90;;;;;;5013333;28;20435;-61
2024/01/29 18:32:09;;;;;;;17.20;7.47;;;20.20;48.90;;;;;;5015572;28;20053;-62
2024/01/29 18:34:36;;;;;;;24.80;7.72;;;20.20;49.00;;;;;;5019861;28;20044;-62
2024/01/29 18:37:02;;;;;;;27.35;6.95;;;20.30;49.10;;;;;;5040833;28;20030;-61
2024/01/29 18:39:27;;;;;;;23.42;7.28;;;20.20;49.40;;;;;;5082781;28;20046;-63
2024/01/29 18:41:56;;;;;;;22.15;7.00;;;20.30;49.70;;;;;;5019417;28;20051;-63
2024/01/29 18:44:28;;;;;;;24.50;7.85;;;20.30;49.20;;;;;;5060424;27;20032;-64
2024/01/29 18:46:55;;;;;;;23.88;7.53;;;20.20;49.80;;;;;;5053884;28;20040;-62
2024/01/29 18:49:21;;;;;;;25.63;7.38;;;20.30;49.60;;;;;;5027309;28;20022;-63
2024/01/29 18:51:47;;;;;;;23.88;7.70;;;20.30;49.60;;;;;;5031656;28;20033;-63
2024/01/29 18:54:13;;;;;;;27.13;8.00;;;20.30;50.30;;;;;;5025782;28;20027;-64
2024/01/29 18:56:39;;;;;;;21.20;7.55;;;20.30;49.40;;;;;;5017351;28;20021;-63
2024/01/29 18:59:05;;;;;;;32.58;8.27;;;20.30;49.70;;;;;;5012612;28;20048;-64
2024/01/29 19:01:31;;;;;;;27.90;8.25;;;20.30;49.80;;;;;;4993621;28;20079;-67
2024/01/29 19:04:02;;;;;;;29.10;9.40;;;20.20;49.40;;;;;;5010859;28;20109;-65
2024/01/29 19:06:31;;;;;;;22.17;7.25;;;20.20;49.40;;;;;;5010986;28;20120;-64
2024/01/29 19:08:57;;;;;;;15.18;6.95;;;20.30;49.70;;;;;;5011474;28;20053;-64
2024/01/29 19:11:27;;;;;;;16.63;7.40;;;20.30;49.60;;;;;;5011170;28;20030;-62
2024/01/29 19:13:53;;;;;;;;;;;20.30;49.60;;;;;;5011404;28;20493;-65
2024/01/29 19:16:19;;;;;;;21.55;8.07;;;20.20;49.50;;;;;;4977667;28;19916;-65
2024/01/29 19:18:45;;;;;;;14.98;7.03;;;20.20;49.30;;;;;;5011063;28;20044;-63
2024/01/29 19:21:16;;;;;;;18.20;7.53;;;20.30;49.40;;;;;;5011029;28;20056;-61
2024/01/29 19:23:44;;;;;;;20.38;7.00;;;20.30;49.40;;;;;;5010839;28;20447;-62
2024/01/29 19:26:10;;;;;;;12.55;6.88;;;20.20;49.10;;;;;;5010984;28;20026;-62
2024/01/29 19:28:36;;;;;;;17.55;7.43;;;20.20;49.10;;;;;;5011065;28;20099;-62
2024/01/29 19:31:04;;;;;;;21.83;7.95;;;20.30;49.30;;;;;;5010987;28;20030;-64
2024/01/29 19:33:29;;;;;;;17.63;7.30;;;20.20;49.20;;;;;;5010597;28;20034;-64
2024/01/29 19:35:55;;;;;;;21.88;7.30;;;20.20;49.10;;;;;;5010850;28;20121;-64
2024/01/29 19:38:22;;;;;;;16.48;6.45;;;20.20;49.10;;;;;;5010964;28;20034;-62
2024/01/29 19:40:48;;;;;;;14.10;7.35;;;20.20;49.00;;;;;;5011078;28;20413;-64
2024/01/29 19:43:13;;;;;;;23.65;7.18;;;20.20;49.00;;;;;;4992995;28;20125;-63
2024/01/29 19:45:39;;;;;;;15.20;6.70;;;20.20;49.10;;;;;;5010673;28;20097;-64
2024/01/29 19:48:05;;;;;;;13.02;6.72;;;20.20;49.10;;;;;;5010673;28;20029;-63
2024/01/29 19:50:32;;;;;;;15.15;6.68;;;20.20;48.90;;;;;;5010810;28;20037;-63
2024/01/29 19:52:58;;;;;;;13.07;6.63;;;20.20;49.00;;;;;;4993086;28;20075;-64
2024/01/29 19:55:24;;;;;;;14.40;6.78;;;20.20;49.00;;;;;;5010495;28;20030;-64
2024/01/29 19:57:49;;;;;;;15.20;6.75;;;20.20;49.10;;;;;;5010535;28;20492;-62
2024/01/29 20:00:16;;;;;;;21.20;6.88;;;20.20;49.20;;;;;;5010590;28;20022;-62
2024/01/29 20:02:41;;;;;;;15.77;6.95;;;20.20;48.90;;;;;;5010062;28;20065;-62
2024/01/29 20:05:08;;;;;;;16.10;7.00;;;20.20;48.90;;;;;;5009305;28;20069;-62
2024/01/29 20:07:36;;;;;;;15.75;6.70;;;20.20;49.00;;;;;;5010553;28;20469;-62
2024/01/29 20:10:03;;;;;;;12.20;6.40;;;20.20;48.90;;;;;;5010269;28;20026;-63
2024/01/29 20:12:30;;;;;;;13.32;6.78;;;20.10;48.80;;;;;;5010028;28;20026;-62
2024/01/29 20:14:56;;;;;;;16.08;7.32;;;20.10;49.10;;;;;;5010181;28;20041;-62
2024/01/29 20:17:22;;;;;;;13.75;6.70;;;20.10;49.10;;;;;;5010279;28;20034;-62
2024/01/29 20:19:48;;;;;;;15.80;7.05;;;20.20;49.20;;;;;;5010366;28;20408;-63
2024/01/29 20:22:14;;;;;;;16.48;6.97;;;20.20;49.30;;;;;;5009793;28;20022;-62
2024/01/29 20:24:40;;;;;;;15.65;7.53;;;20.20;49.00;;;;;;5009984;28;20022;-62
2024/01/29 20:27:07;;;;;;;14.52;7.05;;;20.10;48.80;;;;;;5010036;28;20040;-63
2024/01/29 20:29:33;;;;;;;16.25;8.63;;;20.20;48.70;;;;;;5009982;28;20052;-62
2024/01/29 20:31:59;;;;;;;17.38;8.18;;;20.20;48.80;;;;;;4960271;28;20037;-63
2024/01/29 20:34:25;;;;;;;15.93;7.00;;;20.20;48.80;;;;;;5009907;28;20037;-63
2024/01/29 20:36:51;;;;;;;14.07;7.63;;;20.20;48.60;;;;;;5009931;28;20034;-63
2024/01/29 20:39:16;;;;;;;15.70;7.55;;;20.20;48.60;;;;;;5009838;28;20025;-63
2024/01/29 20:41:44;;;;;;;18.60;7.85;;;20.20;48.70;;;;;;5009493;28;20404;-63
2024/01/29 20:44:10;;;;;;;17.58;7.68;;;20.20;48.80;;;;;;5009716;28;20030;-62
2024/01/29 20:46:43;;;;;;;18.70;8.20;;;20.20;48.60;;;;;;5009936;28;20025;-61
2024/01/29 20:49:09;;;;;;;17.63;8.52;;;20.30;48.60;;;;;;5011240;28;20097;-64
2024/01/29 20:51:39;;;;;;;15.73;8.20;;;20.20;48.50;;;;;;5015373;28;20079;-67
2024/01/29 20:54:06;;;;;;;26.67;9.75;;;20.20;48.30;;;;;;5016775;28;20066;-63
2024/01/29 20:56:32;;;;;;;19.92;8.48;;;20.30;49.10;;;;;;5011885;28;20104;-59
2024/01/29 20:58:58;;;;;;;18.20;8.98;;;20.30;48.80;;;;;;5008530;28;20022;-58
2024/01/29 21:01:23;;;;;;;133.82;68.90;;;20.30;49.10;;;;;;5012127;28;20094;-62
2024/01/29 21:03:52;;;;;;;44.83;22.88;;;20.30;51.50;;;;;;5009092;28;20075;-63
2024/01/29 21:06:19;;;;;;;22.07;13.40;;;20.00;43.00;;;;;;5007742;28;20030;-62
2024/01/29 21:08:45;;;;;;;24.38;13.38;;;19.70;38.20;;;;;;5008562;28;20048;-62
2024/01/29 21:11:11;;;;;;;23.60;13.98;;;19.50;39.40;;;;;;5009503;28;20511;-62
2024/01/29 21:13:37;;;;;;;31.38;18.98;;;19.60;41.20;;;;;;5008198;28;20068;-63
2024/01/29 21:16:04;;;;;;;32.50;18.35;;;19.80;45.30;;;;;;5024569;28;20022;-62
2024/01/29 21:18:29;;;;;;;29.77;16.42;;;20.00;45.10;;;;;;5038245;28;20030;-65
2024/01/29 21:20:55;;;;;;;26.92;16.13;;;20.10;45.10;;;;;;5013267;28;20075;-63
2024/01/29 21:23:21;;;;;;;29.98;16.70;;;20.10;44.50;;;;;;5088426;28;20020;-63
2024/01/29 21:25:47;;;;;;;26.77;15.45;;;20.20;44.50;;;;;;5026396;28;21465;-61
2024/01/29 21:28:12;;;;;;;23.90;14.40;;;20.20;44.50;;;;;;5068139;28;20023;-61
2024/01/29 21:30:38;;;;;;;25.48;15.02;;;20.20;45.60;;;;;;5068578;28;20076;-63
2024/01/29 21:33:04;;;;;;;26.13;14.57;;;20.20;45.70;;;;;;5017983;28;20025;-62
2024/01/29 21:35:30;;;;;;;25.85;15.20;;;20.20;45.80;;;;;;5024195;28;20077;-63
2024/01/29 21:37:56;;;;;;;25.85;14.77;;;20.20;45.60;;;;;;5041800;28;20027;-62
2024/01/29 21:40:23;;;;;;;25.33;14.07;;;20.20;46.00;;;;;;5039640;28;20496;-64
2024/01/29 21:42:48;;;;;;;25.55;14.48;;;20.20;46.40;;;;;;5022264;28;20030;-62
2024/01/29 21:45:14;;;;;;;22.92;13.50;;;20.20;46.40;;;;;;5047827;28;20481;-63
2024/01/29 21:47:40;;;;;;;25.95;14.15;;;20.20;46.50;;;;;;5018179;28;20045;-62
2024/01/29 21:50:06;;;;;;;21.95;13.38;;;20.20;47.20;;;;;;5096038;28;20020;-62
2024/01/29 21:52:32;;;;;;;25.73;13.90;;;20.20;46.60;;;;;;5101416;28;20086;-63
2024/01/29 21:54:58;;;;;;;24.10;13.38;;;20.20;46.70;;;;;;5084754;28;20062;-64
2024/01/29 21:57:24;;;;;;;23.63;13.55;;;20.20;46.60;;;;;;5064427;28;20091;-62
2024/01/29 21:59:50;;;;;;;21.55;13.48;;;20.20;46.80;;;;;;5103318;28;20032;-64
2024/01/29 22:02:16;;;;;;;21.15;13.50;;;20.20;46.80;;;;;;5103205;28;20055;-67
2024/01/29 22:04:44;;;;;;;24.30;13.70;;;20.20;46.90;;;;;;5102278;28;20483;-63
2024/01/29 22:07:13;;;;;;;22.52;13.85;;;20.20;47.00;;;;;;5103427;28;20027;-63
2024/01/29 22:09:38;;;;;;;22.27;12.80;;;20.20;47.00;;;;;;5042147;28;20029;-62
2024/01/29 22:12:05;;;;;;;25.23;14.18;;;20.20;47.10;;;;;;5063452;28;20037;-62
2024/01/29 22:14:31;;;;;;;25.67;13.63;;;20.20;47.10;;;;;;5046908;28;20045;-62
2024/01/29 22:17:15;;;;;;;23.85;13.88;;;20.20;47.30;;;;;;5038523;28;20971;-62
2024/01/29 22:19:41;;;;;;;23.80;13.63;;;20.20;47.30;;;;;;5025878;28;20034;-61
2024/01/29 22:22:08;;;;;;;24.30;12.93;;;20.20;47.50;;;;;;5067918;28;20548;-62
2024/01/29 22:24:34;;;;;;;33.55;13.63;;;20.20;47.60;;;;;;5058953;28;20034;-63
2024/01/29 22:27:00;;;;;;;25.10;13.07;;;20.10;48.00;;;;;;5005276;28;20030;-62
2024/01/29 22:29:26;;;;;;;21.80;13.07;;;20.10;47.90;;;;;;5008936;28;20026;-64
2024/01/29 22:31:52;;;;;;;21.58;12.63;;;20.20;48.00;;;;;;5008904;28;20098;-63
2024/01/29 22:34:18;;;;;;;25.23;14.07;;;20.10;47.80;;;;;;5079695;28;20111;-62
2024/01/29 22:36:43;;;;;;;24.67;12.35;;;20.10;48.10;;;;;;5108787;28;20071;-62
2024/01/29 22:39:10;;;;;;;20.20;12.50;;;20.20;48.00;;;;;;5017880;28;20110;-61
2024/01/29 22:41:37;;;;;;;20.73;11.50;;;20.10;48.20;;;;;;5110509;28;20039;-64
2024/01/29 22:44:03;;;;;;;23.00;12.27;;;20.10;47.80;;;;;;5021379;28;20508;-61
2024/01/29 22:46:29;;;;;;;20.67;11.43;;;20.20;47.80;;;;;;5067768;28;20020;-65
2024/01/29 22:48:55;;;;;;;21.70;11.60;;;20.20;47.70;;;;;;5112042;28;20020;-63
2024/01/29 22:51:22;;;;;;;20.95;11.95;;;20.20;47.70;;;;;;5111919;28;20099;-62
2024/01/29 22:53:48;;;;;;;21.95;12.25;;;20.20;47.90;;;;;;5045139;28;20038;-63
2024/01/29 22:56:15;;;;;;;20.67;12.10;;;20.20;47.70;;;;;;5075122;28;20034;-66
2024/01/29 22:58:41;;;;;;;20.38;11.25;;;20.20;48.70;;;;;;5088458;28;20038;-62
2024/01/29 23:01:07;;;;;;;22.25;11.73;;;20.20;48.10;;;;;;5065518;28;20512;-62
2024/01/29 23:03:33;;;;;;;20.77;11.85;;;20.20;47.80;;;;;;5049869;28;20028;-62
2024/01/29 23:05:59;;;;;;;19.88;10.77;;;20.20;48.80;;;;;;5019696;28;20064;-63
2024/01/29 23:08:25;;;;;;;20.35;11.82;;;20.20;47.90;;;;;;5032265;28;20045;-62
2024/01/29 23:10:51;;;;;;;20.67;11.57;;;20.20;48.00;;;;;;5021538;28;20505;-61
2024/01/29 23:13:18;;;;;;;20.83;12.20;;;20.20;48.10;;;;;;5019696;28;20025;-63
2024/01/29 23:15:44;;;;;;;23.00;11.63;;;20.20;48.10;;;;;;5024353;28;20082;-61
2024/01/29 23:18:10;;;;;;;23.77;11.65;;;20.30;48.30;;;;;;5014168;28;20408;-62
2024/01/29 23:20:36;;;;;;;25.27;11.45;;;20.30;48.60;;;;;;5009525;28;20030;-61
2024/01/29 23:23:02;;;;;;;28.92;10.98;;;20.30;49.00;;;;;;5010404;28;20488;-62
2024/01/29 23:25:29;;;;;;;35.42;11.48;;;20.30;49.20;;;;;;5010356;28;20104;-65
2024/01/29 23:27:55;;;;;;;24.73;11.27;;;20.30;49.00;;;;;;5014452;28;20030;-60
2024/01/29 23:30:20;;;;;;;21.95;11.15;;;20.30;48.80;;;;;;5011162;28;20018;-61
2024/01/29 23:32:46;;;;;;;20.08;11.48;;;20.30;49.30;;;;;;5025656;28;20038;-65
2024/01/29 23:35:12;;;;;;;19.48;9.90;;;20.30;49.00;;;;;;5009803;28;20108;-62
2024/01/29 23:37:38;;;;;;;21.77;10.75;;;20.30;48.90;;;;;;5006480;28;20121;-60
2024/01/29 23:40:05;;;;;;;23.23;10.77;;;20.30;49.10;;;;;;5008181;28;20030;-59
2024/01/29 23:42:32;;;;;;;22.33;10.30;;;20.30;48.90;;;;;;5019187;28;20026;-64
2024/01/29 23:44:58;;;;;;;24.02;10.18;;;20.30;49.30;;;;;;5010256;28;20026;-62
2024/01/29 23:47:23;;;;;;;22.13;10.10;;;20.30;49.80;;;;;;5010490;28;20436;-63
2024/01/29 23:49:49;;;;;;;19.73;10.40;;;20.30;48.50;;;;;;5010429;28;20034;-62
2024/01/29 23:52:15;;;;;;;18.15;9.73;;;20.30;49.10;;;;;;5044199;28;20022;-63
2024/01/29 23:54:41;;;;;;;21.42;9.20;;;20.30;48.70;;;;;;5007282;28;20065;-63
2024/01/29 23:57:07;;;;;;;18.88;9.98;;;20.30;48.70;;;;;;4998620;28;20034;-61
2024/01/29 23:59:33;;;;;;;20.33;10.23;;;20.20;50.00;;;;;;5010207;28;20025;-62
